RJOA/HIJ METAR and TAF weather

Enter ICAO airport designator
Station Type Date Time Source
RJOA METAR 2019/02/16 08:00 UTC NOAA

RJOA 160800Z 27010KT 9999 FEW025 BKN040 06/M06 Q1015


Station Type Date Time Source
RJOA Decoded METAR 2019/02/16 08:00 UTC NOAA

Hiroshima Airport, Japan (RJOA) 34-26N 132-55E 334M
Feb 16, 2019 - 03:00 AM EST / 2019.02.16 0800 UTC
Wind: from the W (270 degrees) at 12 MPH (10 KT):0
Visibility: greater than 7 mile(s):0
Sky conditions: mostly cloudy
Temperature: 42 F (6 C)
Dew Point: 21 F (-6 C)
Relative Humidity: 41%
Pressure (altimeter): 29.97 in. Hg (1015 hPa)
ob: RJOA 160800Z 27010KT 9999 FEW025 BKN040 06/M06 Q1015
cycle: 8

Station Type Date Time Source
RJOA TAF 2019/02/16 06:30 UTC NOAA

TAF RJOA 160506Z 1606/1712 32012KT 9999 FEW025 BKN040
BECMG 1618/1621 04004KT
BECMG 1703/1706 32006KT


Example: see airport list